Anthem Of The Seas — C6BI7 — position and weather

sailwx.info

Track history (hours):
 
Tides and Currents Weather Stations Pressure Air Temp Water Temp Dewpoint Dewpoint Depression Visibility Wind Speed Wind Dir Waves Ship Positions

Anthem Of The Seas

Last reported at 2019-Jul-19 06:00 UTC. Time now 2019-Jul-19 19:20 UTC.
Position N 38°24' W 071°24'.

Length 348 m; draft 8.8 m.

Type: Passenger vessel. MMSI: 311000274.

Wind from 230 at 45 knots

Barometer 1012.3 mb
Air temperature 28.0 ° C
Visibility: greater than 5.4 NM
Water temperature 26.0 ° C

Date/timePositionNaut miles runAvg speedWind from/ knotsBaromVisibWave heightAir tempDewpointWater temp
2019-Jul-19 06:00N 38°24' W 071°24'15519.6 230 / 451012.3 5.4 28.0 26.0
2019-Jul-18 22:03N 40°18' W 073°40'816.6
2019-Jul-18 21:35N 40°25' W 073°47'215.6
2019-Jul-18 21:28N 40°26' W 073°48'613.2
2019-Jul-18 21:00N 40°29' W 073°55'714.9
2019-Jul-18 20:30N 40°34' W 074°02'611.5
2019-Jul-18 20:00N 40°40' W 074°04'0 0.2
2019-Jul-18 19:29N 40°40' W 074°04'0 0.0
2019-Jul-18 18:59N 40°40' W 074°04'0 0.0
2019-Jul-18 18:29N 40°40' W 074°04'0 0.0
2019-Jul-18 17:59N 40°40' W 074°04'0 0.0
2019-Jul-18 17:29N 40°40' W 074°04'0 0.0
2019-Jul-18 16:59N 40°40' W 074°04'0 0.0
2019-Jul-18 16:29N 40°40' W 074°04'0 0.0
2019-Jul-18 15:59N 40°40' W 074°04'0 0.0
2019-Jul-18 15:29N 40°40' W 074°04'0 0.0
2019-Jul-18 14:59N 40°40' W 074°04'0 0.0
2019-Jul-18 14:29N 40°40' W 074°04'0 0.0
2019-Jul-18 13:59N 40°40' W 074°04'0 0.0
2019-Jul-18 13:29N 40°40' W 074°04'0 0.0
2019-Jul-18 12:59N 40°40' W 074°04'0 0.0
2019-Jul-18 12:29N 40°40' W 074°04'0 0.0
2019-Jul-18 11:59N 40°40' W 074°04'0 0.0
2019-Jul-18 11:29N 40°40' W 074°04'0 0.0
2019-Jul-18 11:01N 40°40' W 074°04'1 2.4
2019-Jul-18 10:30N 40°39' W 074°04'713.7
2019-Jul-18 10:00N 40°32' W 074°01'816.0
2019-Jul-18 09:30N 40°28' W 073°52'510.1
2019-Jul-18 09:00N 40°26' W 073°46'815.6
2019-Jul-18 08:31N 40°21' W 073°38'917.2
2019-Jul-18 07:58N 40°16' W 073°28'11619.3
2019-Jul-18 01:57N 38°53' W 071°42'1420.4
2019-Jul-18 01:17N 38°43' W 071°30'2020.4
2019-Jul-18 00:17N 38°28' W 071°13'619.6
2019-Jul-17 23:59N 38°24' W 071°08'  
2019-Jul-14 03:58N 38°59' W 072°04'818.3
2019-Jul-14 03:30N 39°05' W 072°11'4918.8
2019-Jul-14 00:53N 39°41' W 072°55'1618.4
2019-Jul-14 00:02N 39°52' W 073°09'118.1
2019-Jul-14 00:00N 39°52' W 073°09'918.1
2019-Jul-13 23:30N 39°59' W 073°18'918.0
2019-Jul-13 23:00N 40°06' W 073°26'917.9
2019-Jul-13 22:30N 40°12' W 073°33'1017.6
2019-Jul-13 21:58N 40°20' W 073°41'816.7
2019-Jul-13 21:30N 40°25' W 073°48'714.0
2019-Jul-13 20:59N 40°29' W 073°55'713.9
2019-Jul-13 20:30N 40°34' W 074°02'612.0
2019-Jul-13 20:00N 40°40' W 074°04'0 0.4
2019-Jul-13 19:28N 40°40' W 074°04'0 0.0
2019-Jul-13 18:58N 40°40' W 074°04'0 0.0
2019-Jul-13 18:28N 40°40' W 074°04'0 0.0
2019-Jul-13 17:58N 40°40' W 074°04'0 0.0
2019-Jul-13 17:28N 40°40' W 074°04'0 0.0
2019-Jul-13 16:58N 40°40' W 074°04'0 0.0
2019-Jul-13 16:28N 40°40' W 074°04'0 0.0
2019-Jul-13 15:58N 40°40' W 074°04'0 0.0
2019-Jul-13 15:28N 40°40' W 074°04'0 0.0
2019-Jul-13 14:58N 40°40' W 074°04'0 0.0
2019-Jul-13 14:28N 40°40' W 074°04'0 0.0
2019-Jul-13 13:58N 40°40' W 074°04'0 0.0
2019-Jul-13 13:28N 40°40' W 074°04'0 0.0
2019-Jul-13 12:58N 40°40' W 074°04'0 0.0
2019-Jul-13 12:28N 40°40' W 074°04'0 0.0
2019-Jul-13 11:58N 40°40' W 074°04'0 0.0
2019-Jul-13 11:28N 40°40' W 074°04'0 0.0
2019-Jul-13 11:00N 40°40' W 074°04'2 3.2
2019-Jul-13 10:30N 40°38' W 074°03'713.1
2019-Jul-13 10:00N 40°32' W 074°01'815.1
2019-Jul-13 09:30N 40°28' W 073°52'611.9
2019-Jul-13 09:00N 40°24' W 073°47'1019.9
2019-Jul-13 08:30N 40°14' W 073°45'1020.3
2019-Jul-13 08:00N 40°04' W 073°44'1020.6
2019-Jul-13 07:30N 39°54' W 073°42'1121.3
2019-Jul-13 07:00N 39°44' W 073°40'1121.3
2019-Jul-13 06:30N 39°33' W 073°39'1019.3
2019-Jul-13 06:00N 39°23' W 073°39'1119.3
2019-Jul-13 05:24N 39°12' W 073°38'919.4
2019-Jul-13 04:55N 39°02' W 073°37'819.8
2019-Jul-13 04:30N 38°54' W 073°37'1519.6
2019-Jul-13 03:45N 38°39' W 073°36'519.7
2019-Jul-13 03:30N 38°35' W 073°35'1019.5
2019-Jul-13 03:00N 38°25' W 073°34'1019.5
2019-Jul-13 02:30N 38°15' W 073°33'  
2019-Jul-09 19:11N 18°30' W 066°08'210.6
2019-Jul-09 18:58N 18°28' W 066°07'1 1.0
2019-Jul-09 18:28N 18°28' W 066°07'0 0.0
2019-Jul-09 17:58N 18°28' W 066°07'0 0.0
2019-Jul-09 17:28N 18°28' W 066°07'0 0.0
2019-Jul-09 16:58N 18°28' W 066°07'0 0.0
2019-Jul-09 16:28N 18°28' W 066°07'0 0.0
2019-Jul-09 15:58N 18°28' W 066°07'0 0.0
2019-Jul-09 15:28N 18°28' W 066°07'0 0.0
2019-Jul-09 14:58N 18°28' W 066°07'0 0.0
2019-Jul-09 14:28N 18°28' W 066°07'0 0.0
2019-Jul-09 13:55N 18°28' W 066°07'0 0.0
2019-Jul-09 13:28N 18°28' W 066°07'0 0.0
2019-Jul-09 12:58N 18°28' W 066°07'0 0.0
2019-Jul-09 12:28N 18°28' W 066°07'0 0.0
2019-Jul-09 11:58N 18°28' W 066°07'0 0.0
2019-Jul-09 11:28N 18°28' W 066°07'0 0.0
2019-Jul-09 10:58N 18°28' W 066°07'0 0.3
2019-Jul-09 10:31N 18°28' W 066°07'3 6.5
2019-Jul-09 10:00N 18°31' W 066°07'713.4
2019-Jul-09 09:30N 18°32' W 066°01'1015.1
2019-Jul-09 08:52N 18°32' W 065°50'616.0
2019-Jul-09 08:30N 18°31' W 065°44'816.1
2019-Jul-09 08:00N 18°31' W 065°36'816.2
2019-Jul-09 07:30N 18°29' W 065°27'816.8
2019-Jul-09 07:00N 18°28' W 065°19'816.1
2019-Jul-09 06:30N 18°25' W 065°11'918.7
2019-Jul-09 06:00N 18°17' W 065°05'  
Track history (hours):
 
Tides and Currents Weather Stations Pressure Air Temp Water Temp Dewpoint Dewpoint Depression Visibility Wind Speed Wind Dir Waves Ship Positions

Anthem Of The Seas

Last reported at 2019-Jul-19 06:00 UTC. Time now 2019-Jul-19 19:20 UTC.
Position N 38°24' W 071°24'.

Length 348 m; draft 8.8 m.

Type: Passenger vessel. MMSI: 311000274.

Wind from 230 at 45 knots

Barometer 1012.3 mb
Air temperature 28.0 ° C
Visibility: greater than 5.4 NM
Water temperature 26.0 ° C

Date/timePositionNaut miles runAvg speedWind from/ knotsBaromVisibWave heightAir tempDewpointWater temp
2019-Jul-19 06:00N 38°24' W 071°24'15519.6 230 / 451012.3 5.4 28.0 26.0
2019-Jul-18 22:03N 40°18' W 073°40'816.6
2019-Jul-18 21:35N 40°25' W 073°47'215.6
2019-Jul-18 21:28N 40°26' W 073°48'613.2
2019-Jul-18 21:00N 40°29' W 073°55'714.9
2019-Jul-18 20:30N 40°34' W 074°02'611.5
2019-Jul-18 20:00N 40°40' W 074°04'0 0.2
2019-Jul-18 19:29N 40°40' W 074°04'0 0.0
2019-Jul-18 18:59N 40°40' W 074°04'0 0.0
2019-Jul-18 18:29N 40°40' W 074°04'0 0.0
2019-Jul-18 17:59N 40°40' W 074°04'0 0.0
2019-Jul-18 17:29N 40°40' W 074°04'0 0.0
2019-Jul-18 16:59N 40°40' W 074°04'0 0.0
2019-Jul-18 16:29N 40°40' W 074°04'0 0.0
2019-Jul-18 15:59N 40°40' W 074°04'0 0.0
2019-Jul-18 15:29N 40°40' W 074°04'0 0.0
2019-Jul-18 14:59N 40°40' W 074°04'0 0.0
2019-Jul-18 14:29N 40°40' W 074°04'0 0.0
2019-Jul-18 13:59N 40°40' W 074°04'0 0.0
2019-Jul-18 13:29N 40°40' W 074°04'0 0.0
2019-Jul-18 12:59N 40°40' W 074°04'0 0.0
2019-Jul-18 12:29N 40°40' W 074°04'0 0.0
2019-Jul-18 11:59N 40°40' W 074°04'0 0.0
2019-Jul-18 11:29N 40°40' W 074°04'0 0.0
2019-Jul-18 11:01N 40°40' W 074°04'1 2.4
2019-Jul-18 10:30N 40°39' W 074°04'713.7
2019-Jul-18 10:00N 40°32' W 074°01'816.0
2019-Jul-18 09:30N 40°28' W 073°52'510.1
2019-Jul-18 09:00N 40°26' W 073°46'815.6
2019-Jul-18 08:31N 40°21' W 073°38'917.2
2019-Jul-18 07:58N 40°16' W 073°28'11619.3
2019-Jul-18 01:57N 38°53' W 071°42'1420.4
2019-Jul-18 01:17N 38°43' W 071°30'2020.4
2019-Jul-18 00:17N 38°28' W 071°13'619.6
2019-Jul-17 23:59N 38°24' W 071°08'  
2019-Jul-14 03:58N 38°59' W 072°04'818.3
2019-Jul-14 03:30N 39°05' W 072°11'4918.8
2019-Jul-14 00:53N 39°41' W 072°55'1618.4
2019-Jul-14 00:02N 39°52' W 073°09'118.1
2019-Jul-14 00:00N 39°52' W 073°09'918.1
2019-Jul-13 23:30N 39°59' W 073°18'918.0
2019-Jul-13 23:00N 40°06' W 073°26'917.9
2019-Jul-13 22:30N 40°12' W 073°33'1017.6
2019-Jul-13 21:58N 40°20' W 073°41'816.7
2019-Jul-13 21:30N 40°25' W 073°48'714.0
2019-Jul-13 20:59N 40°29' W 073°55'713.9
2019-Jul-13 20:30N 40°34' W 074°02'612.0
2019-Jul-13 20:00N 40°40' W 074°04'0 0.4
2019-Jul-13 19:28N 40°40' W 074°04'0 0.0
2019-Jul-13 18:58N 40°40' W 074°04'0 0.0
2019-Jul-13 18:28N 40°40' W 074°04'0 0.0
2019-Jul-13 17:58N 40°40' W 074°04'0 0.0
2019-Jul-13 17:28N 40°40' W 074°04'0 0.0
2019-Jul-13 16:58N 40°40' W 074°04'0 0.0
2019-Jul-13 16:28N 40°40' W 074°04'0 0.0
2019-Jul-13 15:58N 40°40' W 074°04'0 0.0
2019-Jul-13 15:28N 40°40' W 074°04'0 0.0
2019-Jul-13 14:58N 40°40' W 074°04'0 0.0
2019-Jul-13 14:28N 40°40' W 074°04'0 0.0
2019-Jul-13 13:58N 40°40' W 074°04'0 0.0
2019-Jul-13 13:28N 40°40' W 074°04'0 0.0
2019-Jul-13 12:58N 40°40' W 074°04'0 0.0
2019-Jul-13 12:28N 40°40' W 074°04'0 0.0
2019-Jul-13 11:58N 40°40' W 074°04'0 0.0
2019-Jul-13 11:28N 40°40' W 074°04'0 0.0
2019-Jul-13 11:00N 40°40' W 074°04'2 3.2
2019-Jul-13 10:30N 40°38' W 074°03'713.1
2019-Jul-13 10:00N 40°32' W 074°01'815.1
2019-Jul-13 09:30N 40°28' W 073°52'611.9
2019-Jul-13 09:00N 40°24' W 073°47'1019.9
2019-Jul-13 08:30N 40°14' W 073°45'1020.3
2019-Jul-13 08:00N 40°04' W 073°44'1020.6
2019-Jul-13 07:30N 39°54' W 073°42'1121.3
2019-Jul-13 07:00N 39°44' W 073°40'1121.3
2019-Jul-13 06:30N 39°33' W 073°39'1019.3
2019-Jul-13 06:00N 39°23' W 073°39'1119.3
2019-Jul-13 05:24N 39°12' W 073°38'919.4
2019-Jul-13 04:55N 39°02' W 073°37'819.8
2019-Jul-13 04:30N 38°54' W 073°37'1519.6
2019-Jul-13 03:45N 38°39' W 073°36'519.7
2019-Jul-13 03:30N 38°35' W 073°35'1019.5
2019-Jul-13 03:00N 38°25' W 073°34'1019.5
2019-Jul-13 02:30N 38°15' W 073°33'  
2019-Jul-09 19:11N 18°30' W 066°08'210.6
2019-Jul-09 18:58N 18°28' W 066°07'1 1.0
2019-Jul-09 18:28N 18°28' W 066°07'0 0.0
2019-Jul-09 17:58N 18°28' W 066°07'0 0.0
2019-Jul-09 17:28N 18°28' W 066°07'0 0.0
2019-Jul-09 16:58N 18°28' W 066°07'0 0.0
2019-Jul-09 16:28N 18°28' W 066°07'0 0.0
2019-Jul-09 15:58N 18°28' W 066°07'0 0.0
2019-Jul-09 15:28N 18°28' W 066°07'0 0.0
2019-Jul-09 14:58N 18°28' W 066°07'0 0.0
2019-Jul-09 14:28N 18°28' W 066°07'0 0.0
2019-Jul-09 13:55N 18°28' W 066°07'0 0.0
2019-Jul-09 13:28N 18°28' W 066°07'0 0.0
2019-Jul-09 12:58N 18°28' W 066°07'0 0.0
2019-Jul-09 12:28N 18°28' W 066°07'0 0.0
2019-Jul-09 11:58N 18°28' W 066°07'0 0.0
2019-Jul-09 11:28N 18°28' W 066°07'0 0.0
2019-Jul-09 10:58N 18°28' W 066°07'0 0.3
2019-Jul-09 10:31N 18°28' W 066°07'3 6.5
2019-Jul-09 10:00N 18°31' W 066°07'713.4
2019-Jul-09 09:30N 18°32' W 066°01'1015.1
2019-Jul-09 08:52N 18°32' W 065°50'616.0
2019-Jul-09 08:30N 18°31' W 065°44'816.1
2019-Jul-09 08:00N 18°31' W 065°36'816.2
2019-Jul-09 07:30N 18°29' W 065°27'816.8
2019-Jul-09 07:00N 18°28' W 065°19'816.1
2019-Jul-09 06:30N 18°25' W 065°11'918.7
2019-Jul-09 06:00N 18°17' W 065°05'  

Dump ship's entire track history